Hlavní strana
METAR-TAF:

METAR-TAF

Letiště :

Letiště Václava Havla Praha

Praha, Česká republika

zeměpisná šířka: 50-06N, zeměpisná délka: 014-15E, výška: 365 m

Aktuální stav počasí

Zpráva byla vytvořena před 8 minutami, v 08:00 UTC
vítr z různých směrů 2 kt
Teplota 20°C
Vlhkost vzduchu 60%
Tlak 1022 hPa
Viditelnost 10 km a více
Žádná oblačnost pod 1500 m, nevyskytují se cumulonimby.

METAR: LKPR 260800Z VRB02KT CAVOK 20/12 Q1022 NOSIG

Čas: 10:08 (08:08 UTC)

Předpověď počasí

Zpráva byla vytvořena před 3 hodinami a 8 minutami, v 05:00 UTC
Předpověď platná od 26 v 06 UTC do 27 v 12 UTC
vítr z různých směrů 2 kt
Viditelnost 10 km a více
Žádná oblačnost pod 1500 m, nevyskytují se cumulonimby.
Dočasný
od 26 v 10 UTC do 26 v 17 UTC
Východní vítr 10 kt
Viditelnost 10 km a více
Polojasno ve výšce 5000 ft, Vertikální cumulus.

TAF: LKPR 260500Z 2606/2712 VRB02KT CAVOK TEMPO 2610/2617 08010KT 9999 SCT050TCU

Stav a předpovědi počasí z více než 4 000 letišť (zprávy METAR a TAF).

Červené a žluté tečky na mapě představují dostupné meteorologické stanice.

Když kurzor umístíte na tečku, zobrazí se název stanice.

Pak kliknutím zobrazíte stav a předpověď počasí.

Chcete-li změnit mapu, kliknutím na zelené tlačítko se znaménkem +mapu přiblížíte, kliknutím na zelené tlačítko se znaménkem – mapu oddálíte a kliknutím na zelené šipky přejdete na sousední mapy.


METAR-TAF: